Time;durP1;ratioP1;P1;durP2;ratioP2;P2;SDS_P1;SDS_P2;PMS_P1;PMS_P2;Temp;Humidity;BMP_temperature;BMP_pressure;BME280_temperature;BME280_humidity;BME280_pressure;Samples;Min_cycle;Max_cycle;Signal;HPM_P1;HPM_P2
2021/05/12 00:00:01;;;;;;;;;;;;;;;15.04;100.00;99728.75;5035476;28;19924;-66
2021/05/12 00:02:27;;;;;;;;;;;;;;;14.99;100.00;99731.16;5052942;28;19928;-67
2021/05/12 00:04:52;;;;;;;;;;;;;;;14.96;100.00;99726.06;5053337;28;19931;-66
2021/05/12 00:07:18;;;;;;;;;;;;;;;14.93;100.00;99731.91;5053059;28;19932;-66
2021/05/12 00:09:45;;;;;;;;;;;;;;;14.87;100.00;99730.69;5052578;28;20396;-66
2021/05/12 00:12:11;;;;;;;;;;;;;;;14.94;100.00;99739.03;5037747;28;19939;-66
2021/05/12 00:14:37;;;;;;;;;;;;;;;14.87;100.00;99750.69;5052624;28;19925;-67
2021/05/12 00:17:03;;;;;;;;;;;;;;;14.87;100.00;99756.16;5052918;28;19928;-67
2021/05/12 00:19:30;;;;;;;;;;;;;;;14.87;100.00;99771.69;5052950;28;19925;-67
2021/05/12 00:22:01;;;;;;;;;;;;;;;14.86;100.00;99781.78;5052598;28;19931;-67
2021/05/12 00:24:26;;;;;;;;;;;;;;;14.89;100.00;99783.31;5034943;28;19925;-67
2021/05/12 00:26:53;;;;;;;;;;;;;;;14.85;100.00;99773.75;5052349;28;20284;-67
2021/05/12 00:29:19;;;;;;;;;;;;;;;14.74;100.00;99785.91;5052793;28;19936;-67
2021/05/12 00:31:45;;;;;;;;;;;;;;;14.70;100.00;99788.13;5052378;28;20285;-67
2021/05/12 00:34:11;;;;;;;;;;;;;;;14.71;100.00;99784.38;5052292;28;19991;-67
2021/05/12 00:36:37;;;;;;;;;;;;;;;14.69;100.00;99785.59;5052703;28;19929;-67
2021/05/12 00:39:03;;;;;;;;;;;;;;;14.67;100.00;99784.88;5034353;28;20315;-67
2021/05/12 00:41:29;;;;;;;;;;;;;;;14.69;100.00;99785.59;5052525;28;20006;-67
2021/05/12 00:43:56;;;;;;;;;;;;;;;14.64;100.00;99787.97;5052190;28;19971;-67
2021/05/12 00:46:21;;;;;;;;;;;;;;;14.62;100.00;99799.03;5034557;28;19968;-67
2021/05/12 00:48:47;;;;;;;;;;;;;;;14.55;100.00;99804.34;5052325;28;20304;-67
2021/05/12 00:51:13;;;;;;;;;;;;;;;14.50;100.00;99809.47;5051939;28;19925;-67
2021/05/12 00:53:39;;;;;;;;;;;;;;;14.47;100.00;99807.09;5052226;28;19924;-67
2021/05/12 00:56:05;;;;;;;;;;;;;;;14.39;100.00;99821.59;5051824;28;20403;-66
2021/05/12 00:58:31;;;;;;;;;;;;;;;14.29;100.00;99818.19;5034329;28;20395;-66
2021/05/12 01:00:58;;;;;;;;;;;;;;;14.24;100.00;99815.13;5052132;28;20012;-67
2021/05/12 01:03:24;;;;;;;;;;;;;;;14.21;100.00;99819.03;5051883;28;20404;-67
2021/05/12 01:06:00;;;;;;;;;;;;;;;14.11;100.00;99832.00;5051954;28;19925;-67
2021/05/12 01:08:27;;;;;;;;;;;;;;;14.04;100.00;99833.69;5051234;28;19935;-67
2021/05/12 01:10:53;;;;;;;;;;;;;;;13.96;100.00;99829.06;5051553;28;20303;-67
2021/05/12 01:13:19;;;;;;;;;;;;;;;13.97;100.00;99841.69;5051857;28;19924;-67
2021/05/12 01:15:45;;;;;;;;;;;;;;;14.04;100.00;99839.16;5051559;28;19925;-67
2021/05/12 01:18:15;;;;;;;;;;;;;;;14.02;100.00;99844.78;5051709;28;19928;-66
2021/05/12 01:20:49;;;;;;;;;;;;;;;14.06;100.00;99846.16;5051674;28;20000;-67
2021/05/12 01:23:15;;;;;;;;;;;;;;;14.04;100.00;99848.22;5051794;28;19980;-67
2021/05/12 01:25:41;;;;;;;;;;;;;;;14.02;100.00;99849.41;5051633;28;20450;-66
2021/05/12 01:28:07;;;;;;;;;;;;;;;13.96;100.00;99861.81;5051351;28;19968;-66
2021/05/12 01:30:33;;;;;;;;;;;;;;;13.93;100.00;99862.16;5051689;28;20135;-66
2021/05/12 01:33:00;;;;;;;;;;;;;;;13.93;100.00;99864.03;5033391;28;19931;-66
2021/05/12 01:35:26;;;;;;;;;;;;;;;13.84;100.00;99874.06;5051587;28;19972;-66
2021/05/12 01:37:53;;;;;;;;;;;;;;;13.72;100.00;99865.34;5051126;28;19988;-66
2021/05/12 01:40:19;;;;;;;;;;;;;;;13.63;100.00;99866.34;5051548;28;20368;-66
2021/05/12 01:42:45;;;;;;;;;;;;;;;13.55;100.00;99859.84;5051556;28;19940;-66
2021/05/12 01:45:11;;;;;;;;;;;;;;;13.40;100.00;99853.31;5051204;28;19967;-66
2021/05/12 01:47:37;;;;;;;;;;;;;;;13.32;100.00;99853.25;5050985;28;20295;-66
2021/05/12 01:50:04;;;;;;;;;;;;;;;13.31;100.00;99866.03;5051241;28;19929;-67
2021/05/12 01:52:30;;;;;;;;;;;;;;;13.36;100.00;99874.59;5051575;28;20439;-66
2021/05/12 01:54:57;;;;;;;;;;;;;;;13.28;100.00;99882.72;5051213;28;19978;-66
2021/05/12 01:57:22;;;;;;;;;;;;;;;13.26;100.00;99894.78;5051219;28;19968;-66
2021/05/12 01:59:48;;;;;;;;;;;;;;;13.24;100.00;99889.47;5051290;28;19948;-66
2021/05/12 02:02:14;;;;;;;;;;;;;;;13.20;100.00;99888.97;5051143;28;20388;-66
2021/05/12 02:04:40;;;;;;;;;;;;;;;13.09;100.00;99891.97;5051310;28;19924;-66
2021/05/12 02:07:07;;;;;;;;;;;;;;;13.06;100.00;99890.41;5050906;28;19929;-66
2021/05/12 02:09:34;;;;;;;;;;;;;;;13.03;100.00;99882.56;5033295;28;19986;-66
2021/05/12 02:12:01;;;;;;;;;;;;;;;13.03;100.00;99888.03;5051228;28;20381;-67
2021/05/12 02:14:27;;;;;;;;;;;;;;;13.10;100.00;99877.31;5053540;28;19925;-67
2021/05/12 02:16:53;;;;;;;;;;;;;;;13.10;100.00;99880.06;5051340;28;19925;-67
2021/05/12 02:19:18;;;;;;;;;;;;;;;13.07;100.00;99878.50;5051555;28;19924;-66
2021/05/12 02:21:44;;;;;;;;;;;;;;;13.04;100.00;99876.13;5055118;28;19971;-66
2021/05/12 02:24:10;;;;;;;;;;;;;;;13.08;100.00;99873.94;5037309;28;19929;-66
2021/05/12 02:26:37;;;;;;;;;;;;;;;12.98;100.00;99878.63;5054724;28;20392;-66
2021/05/12 02:29:04;;;;;;;;;;;;;;;12.96;100.00;99872.47;5055022;28;20285;-66
2021/05/12 02:31:30;;;;;;;;;;;;;;;13.00;100.00;99862.97;5054926;28;19928;-66
2021/05/12 02:33:55;;;;;;;;;;;;;;;12.99;100.00;99864.84;5037019;28;20300;-66
2021/05/12 02:36:21;;;;;;;;;;;;;;;12.99;100.00;99872.16;5054952;28;19925;-66
2021/05/12 02:38:47;;;;;;;;;;;;;;;12.97;100.00;99863.28;5054537;28;19924;-66
2021/05/12 02:41:13;;;;;;;;;;;;;;;12.88;100.00;99870.53;5055117;28;19929;-66
2021/05/12 02:43:39;;;;;;;;;;;;;;;12.86;100.00;99865.25;5054505;28;19932;-66
2021/05/12 02:46:05;;;;;;;;;;;;;;;12.85;100.00;99873.59;5054367;28;20333;-66
2021/05/12 02:48:31;;;;;;;;;;;;;;;12.78;100.00;99873.38;5054814;28;20325;-66
2021/05/12 02:50:57;;;;;;;;;;;;;;;12.78;100.00;99878.00;5054279;28;19970;-66
2021/05/12 02:53:23;;;;;;;;;;;;;;;12.75;100.00;99871.00;5054521;28;19925;-66
2021/05/12 02:55:48;;;;;;;;;;;;;;;12.73;100.00;99867.56;5054236;28;19925;-66
2021/05/12 02:58:15;;;;;;;;;;;;;;;12.69;100.00;99867.03;5054668;28;19929;-66
2021/05/12 03:00:41;;;;;;;;;;;;;;;12.68;100.00;99873.50;5054580;28;20346;-66
2021/05/12 03:03:09;;;;;;;;;;;;;;;12.60;100.00;99873.44;5035871;28;20376;-66
2021/05/12 03:05:35;;;;;;;;;;;;;;;12.72;100.00;99879.50;5036691;28;20319;-66
2021/05/12 03:08:01;;;;;;;;;;;;;;;12.64;100.00;99882.13;5053754;28;19952;-66
2021/05/12 03:10:27;;;;;;;;;;;;;;;12.62;100.00;99895.06;5054347;28;19952;-66
2021/05/12 03:12:53;;;;;;;;;;;;;;;12.55;100.00;99894.84;5054104;28;19979;-66
2021/05/12 03:15:20;;;;;;;;;;;;;;;12.49;100.00;99896.34;5054044;28;19931;-66
2021/05/12 03:17:46;;;;;;;;;;;;;;;12.50;100.00;99902.63;5054003;28;19957;-66
2021/05/12 03:20:16;;;;;;;;;;;;;;;12.46;100.00;99899.34;5036126;28;20023;-66
2021/05/12 03:22:42;;;;;;;;;;;;;;;12.45;100.00;99900.34;5053705;28;19925;-66
2021/05/12 03:25:08;;;;;;;;;;;;;;;12.46;100.00;99896.63;5053814;28;19931;-66
2021/05/12 03:27:34;;;;;;;;;;;;;;;12.42;100.00;99903.41;5053701;28;19924;-66
2021/05/12 03:29:59;;;;;;;;;;;;;;;12.43;100.00;99902.38;5035720;28;20414;-66
2021/05/12 03:32:25;;;;;;;;;;;;;;;12.43;100.00;99902.38;5053586;28;19928;-66
2021/05/12 03:34:51;;;;;;;;;;;;;;;12.45;100.00;99897.63;5053627;28;19924;-66
2021/05/12 03:37:18;;;;;;;;;;;;;;;12.55;100.00;99898.41;5053276;28;19932;-67
2021/05/12 03:39:44;;;;;;;;;;;;;;;12.54;100.00;99893.97;5053628;28;20268;-66
2021/05/12 03:42:10;;;;;;;;;;;;;;;12.49;100.00;99900.91;5060287;28;19924;-66
2021/05/12 03:44:36;;;;;;;;;;;;;;;12.50;100.00;99902.63;5073262;28;19928;-66
2021/05/12 03:47:02;;;;;;;;;;;;;;;12.56;100.00;99900.13;5054147;28;20350;-66
2021/05/12 03:49:28;;;;;;;;;;;;;;;12.62;100.00;99900.50;5067168;28;19924;-66
2021/05/12 03:51:55;;;;;;;;;;;;;;;12.60;100.00;99894.34;5056859;28;19925;-66
2021/05/12 03:54:22;;;;;;;;;;;;;;;12.63;100.00;99891.34;5053316;28;20019;-66
2021/05/12 03:56:48;;;;;;;;;;;;;;;12.71;100.00;99891.38;5055909;28;19924;-66
2021/05/12 03:59:14;;;;;;;;;;;;;;;12.74;100.00;99888.34;5066671;28;19963;-66
2021/05/12 04:01:40;;;;;;;;;;;;;;;12.77;100.00;99895.34;5072934;28;20391;-67
2021/05/12 04:04:08;;;;;;;;;;;;;;;12.73;100.00;99897.50;5073033;28;19953;-67
2021/05/12 04:06:35;;;;;;;;;;;;;;;12.81;100.00;99897.56;5053850;28;19931;-66
2021/05/12 04:09:00;;;;;;;;;;;;;;;12.84;100.00;99891.81;5072146;28;19963;-66
2021/05/12 04:11:27;;;;;;;;;;;;;;;12.90;100.00;99903.94;5068408;28;19928;-66
2021/05/12 04:13:53;;;;;;;;;;;;;;;12.93;100.00;99910.94;5071610;28;19925;-66
2021/05/12 04:16:19;;;;;;;;;;;;;;;12.88;100.00;99914.13;5046338;28;19939;-67
2021/05/12 04:18:45;;;;;;;;;;;;;;;12.85;100.00;99918.06;5052541;28;20347;-66
2021/05/12 04:21:11;;;;;;;;;;;;;;;12.81;100.00;99918.50;5055209;28;19936;-69
2021/05/12 04:23:37;;;;;;;;;;;;;;;12.75;100.00;99922.72;5053547;28;20062;-67
2021/05/12 04:26:02;;;;;;;;;;;;;;;12.81;100.00;99926.69;5066582;28;19932;-67
2021/05/12 04:28:29;;;;;;;;;;;;;;;12.83;100.00;99925.50;5052415;28;20350;-66
2021/05/12 04:30:55;;;;;;;;;;;;;;;12.80;100.00;99924.97;5052745;28;19963;-66
2021/05/12 04:33:21;;;;;;;;;;;;;;;12.81;100.00;99924.81;5052398;28;19928;-67
2021/05/12 04:35:46;;;;;;;;;;;;;;;12.77;100.00;99919.84;5037093;28;19929;-66
2021/05/12 04:38:12;;;;;;;;;;;;;;;12.69;100.00;99921.50;5049540;28;19975;-66
2021/05/12 04:40:38;;;;;;;;;;;;;;;12.79;100.00;99931.44;5055562;28;19978;-67
2021/05/12 04:43:04;;;;;;;;;;;;;;;12.77;100.00;99931.56;5051101;28;19929;-66
2021/05/12 04:45:31;;;;;;;;;;;;;;;12.81;100.00;99932.97;5057524;28;20027;-65
2021/05/12 04:47:57;;;;;;;;;;;;;;;12.81;100.00;99923.97;5052297;28;19947;-66
2021/05/12 04:50:23;;;;;;;;;;;;;;;12.90;100.00;99926.56;5060274;28;19976;-66
2021/05/12 04:52:49;;;;;;;;;;;;;;;13.03;100.00;99933.50;5059605;28;19969;-66
2021/05/12 04:55:15;;;;;;;;;;;;;;;13.06;100.00;99920.38;5067828;28;19939;-67
2021/05/12 04:57:41;;;;;;;;;;;;;;;13.12;100.00;99927.09;5071728;28;20315;-66
2021/05/12 05:00:12;;;;;;;;;;;;;;;13.09;100.00;99930.09;5054200;28;19974;-66
2021/05/12 05:02:38;;;;;;;;;;;;;;;13.05;100.00;99928.72;5071400;28;19924;-66
2021/05/12 05:05:06;;;;;;;;;;;;;;;13.10;100.00;99944.59;5071714;28;20339;-66
2021/05/12 05:07:32;;;;;;;;;;;;;;;13.05;100.00;99942.34;5071688;28;19925;-66
2021/05/12 05:10:00;;;;;;;;;;;;;;;13.04;100.00;99946.94;5071546;28;19935;-66
2021/05/12 05:12:26;;;;;;;;;;;;;;;13.08;100.00;99950.22;5071764;28;20032;-66
2021/05/12 05:14:52;;;;;;;;;;;;;;;13.13;100.00;99949.72;5071535;28;19925;-66
2021/05/12 05:17:17;;;;;;;;;;;;;;;13.15;100.00;99964.91;5071716;28;20265;-66
2021/05/12 05:19:44;;;;;;;;;;;;;;;13.16;100.00;99969.34;5071596;28;19928;-66
2021/05/12 05:22:12;;;;;;;;;;;;;;;13.18;100.00;99975.47;5071285;28;20346;-66
2021/05/12 05:24:37;;;;;;;;;;;;;;;13.16;100.00;99968.47;5052978;28;19971;-65
2021/05/12 05:27:04;;;;;;;;;;;;;;;13.20;100.00;99969.84;5055496;28;20385;-66
2021/05/12 05:29:29;;;;;;;;;;;;;;;13.15;100.00;99970.34;5053573;28;20021;-66
2021/05/12 05:31:55;;;;;;;;;;;;;;;13.08;100.00;99972.00;5071934;28;20371;-66
2021/05/12 05:34:51;;;;;;;;;;;;;;;13.13;100.00;99972.34;5013226;28;20031;-66
2021/05/12 05:37:35;;;;;;;;;;;;;;;13.17;100.00;99981.91;5051463;28;20438;-65
2021/05/12 05:40:20;;;;;;;;;;;;;;;13.18;100.00;99980.06;5059825;28;19970;-67
2021/05/12 05:43:07;;;;;;;;;;;;;;;13.19;100.00;99977.19;5071333;28;19946;-65
2021/05/12 05:45:52;;;;;;;;;;;;;;;13.09;100.00;99979.16;5057232;28;19932;-66
2021/05/12 05:48:36;;;;;;;;;;;;;;;13.09;100.00;99976.41;5066139;28;20402;-67
2021/05/12 05:51:23;;;;;;;;;;;;;;;13.12;100.00;99986.16;5064672;28;20019;-66
2021/05/12 05:54:07;;;;;;;;;;;;;;;12.96;100.00;99993.19;5069153;28;19925;-66
2021/05/12 05:56:51;;;;;;;;;;;;;;;13.00;100.00;99993.72;5067386;28;20250;-66
2021/05/12 05:59:46;;;;;;;;;;;;;;;13.03;100.00;99997.00;5003415;28;19930;-66
2021/05/12 06:02:30;;;;;;;;;;;;;;;13.05;100.00;99999.56;5059086;28;19986;-66
2021/05/12 06:05:15;;;;;;;;;;;;;;;12.90;100.00;100002.84;5057314;28;19960;-65
2021/05/12 06:08:05;;;;;;;;;;;;;;;12.81;100.00;99995.59;5028762;28;19932;-65
2021/05/12 06:10:49;;;;;;;;;;;;;;;12.69;100.00;99986.84;5057079;28;19979;-72
2021/05/12 06:13:34;;;;;;;;;;;;;;;12.78;100.00;99995.94;5079237;28;20341;-71
2021/05/12 06:16:18;;;;;;;;;;;;;;;12.82;100.00;99994.59;5097843;28;20175;-71
2021/05/12 06:19:03;;;;;;;;;;;;;;;12.93;100.00;99990.78;5074009;28;20437;-66
2021/05/12 06:21:47;;;;;;;;;;;;;;;13.18;100.00;99983.63;5077086;28;20260;-66
2021/05/12 06:24:32;;;;;;;;;;;;;;;13.34;100.00;99995.69;5076913;28;20055;-66
2021/05/12 06:27:17;;;;;;;;;;;;;;;13.52;100.00;99979.28;5077541;28;19974;-67
2021/05/12 06:30:01;;;;;;;;;;;;;;;13.91;100.00;99981.53;5076717;28;20298;-67
2021/05/12 06:32:47;;;;;;;;;;;;;;;13.90;100.00;99980.66;5076446;28;19931;-67
2021/05/12 06:35:31;;;;;;;;;;;;;;;14.00;100.00;99971.47;5057412;28;19969;-67
2021/05/12 06:38:15;;;;;;;;;;;;;;;14.04;100.00;99965.53;5061620;28;19924;-67
2021/05/12 06:40:42;;;;;;;;;;;;;;;14.15;100.00;99966.22;5067457;28;19924;-67
2021/05/12 06:43:08;;;;;;;;;;;;;;;14.13;100.00;99974.59;5071055;28;19979;-68
2021/05/12 06:45:34;;;;;;;;;;;;;;;13.97;100.00;99978.13;5069272;28;19929;-67
2021/05/12 06:48:00;;;;;;;;;;;;;;;13.73;100.00;99981.59;5065527;28;20322;-67
2021/05/12 06:50:25;;;;;;;;;;;;;;;13.43;100.00;99980.25;5075470;28;19924;-68
2021/05/12 06:52:52;;;;;;;;;;;;;;;13.30;100.00;99992.41;5074436;28;20364;-67
2021/05/12 06:55:19;;;;;;;;;;;;;;;13.28;100.00;99999.03;5060460;28;19968;-67
2021/05/12 06:57:46;;;;;;;;;;;;;;;13.15;100.00;100005.78;5060810;28;19931;-66
2021/05/12 07:00:12;;;;;;;;;;;;;;;13.26;100.00;100001.09;5038962;28;19924;-67
2021/05/12 07:02:38;;;;;;;;;;;;;;;13.23;100.00;100005.81;5050795;28;20327;-68
2021/05/12 07:05:04;;;;;;;;;;;;;;;13.21;100.00;99999.69;5075497;28;20011;-67
2021/05/12 07:07:30;;;;;;;;;;;;;;;13.19;100.00;100003.59;5071817;28;19924;-68
2021/05/12 07:09:56;;;;;;;;;;;;;;;13.28;100.00;100009.94;5073724;28;20452;-68
2021/05/12 07:12:22;;;;;;;;;;;;;;;13.26;100.00;100012.81;5062525;28;20011;-68
2021/05/12 07:14:48;;;;;;;;;;;;;;;13.40;100.00;100005.94;5053716;28;19970;-67
2021/05/12 07:17:14;;;;;;;;;;;;;;;13.44;100.00;100010.09;5045994;28;19928;-67
2021/05/12 07:19:40;;;;;;;;;;;;;;;13.45;100.00;100010.94;5055533;28;19978;-68
2021/05/12 07:22:06;;;;;;;;;;;;;;;13.37;100.00;100006.28;5071265;28;20384;-67
2021/05/12 07:24:31;;;;;;;;;;;;;;;13.39;100.00;100015.16;5072522;28;19931;-67
2021/05/12 07:26:57;;;;;;;;;;;;;;;13.37;100.00;100015.34;5065491;28;20311;-67
2021/05/12 07:29:23;;;;;;;;;;;;;;;13.32;100.00;100017.66;5053677;28;19932;-67
2021/05/12 07:31:50;;;;;;;;;;;;;;;13.28;100.00;100019.00;5058806;28;19972;-67
2021/05/12 07:34:16;;;;;;;;;;;;;;;13.39;100.00;100026.06;5073393;28;19928;-67
2021/05/12 07:36:42;;;;;;;;;;;;;;;13.45;100.00;100021.84;5069173;28;20039;-67
2021/05/12 07:39:08;;;;;;;;;;;;;;;13.60;100.00;100033.84;5034983;28;19933;-68
2021/05/12 07:41:34;;;;;;;;;;;;;;;13.35;100.00;100032.84;5056058;28;20380;-67
2021/05/12 07:44:19;;;;;;;;;;;;;;;13.27;100.00;100039.06;5086963;28;19939;-67
2021/05/12 07:46:45;;;;;;;;;;;;;;;13.33;100.00;100040.31;5087595;28;20319;-68
2021/05/12 07:49:12;;;;;;;;;;;;;;;13.30;100.00;100040.63;5066031;28;19978;-67
2021/05/12 07:51:37;;;;;;;;;;;;;;;13.33;100.00;100035.69;5055257;28;19924;-67
2021/05/12 07:54:04;;;;;;;;;;;;;;;13.23;100.00;100052.16;5061441;28;20316;-68
2021/05/12 07:56:30;;;;;;;;;;;;;;;13.08;100.00;100042.84;5070909;28;19929;-67
2021/05/12 07:58:56;;;;;;;;;;;;;;;13.17;100.00;100044.59;5072513;28;20399;-66
2021/05/12 08:01:25;;;;;;;;;;;;;;;13.18;100.00;100032.69;5053057;28;19925;-67
2021/05/12 08:03:51;;;;;;;;;;;;;;;13.39;100.00;100024.19;5062096;28;19931;-67
2021/05/12 08:06:18;;;;;;;;;;;;;;;13.56;100.00;100018.84;5073365;28;19940;-67
2021/05/12 08:08:43;;;;;;;;;;;;;;;13.86;100.00;100020.19;5072733;28;20299;-68
2021/05/12 08:11:09;;;;;;;;;;;;;;;14.09;100.00;100010.56;5068193;28;20324;-67
2021/05/12 08:13:35;;;;;;;;;;;;;;;14.24;100.00;100011.63;5065419;28;19928;-68
2021/05/12 08:16:01;;;;;;;;;;;;;;;14.15;100.00;100016.22;5054096;28;19931;-67
2021/05/12 08:18:27;;;;;;;;;;;;;;;14.10;100.00;100024.06;5060693;28;20356;-68
2021/05/12 08:20:55;;;;;;;;;;;;;;;14.12;100.00;100026.63;5058958;28;19928;-67
2021/05/12 08:23:22;;;;;;;;;;;;;;;13.90;100.00;100032.47;5072015;28;20011;-67
2021/05/12 08:25:47;;;;;;;;;;;;;;;13.98;100.00;100030.84;5062785;28;19931;-67
2021/05/12 08:28:13;;;;;;;;;;;;;;;13.84;100.00;100043.19;5052270;28;20396;-66
2021/05/12 08:30:44;;;;;;;;;;;;;;;13.85;100.00;100037.56;5034507;28;19928;-67
2021/05/12 08:33:11;;;;;;;;;;;;;;;13.93;100.00;100042.22;5056719;28;19928;-67
2021/05/12 08:35:37;;;;;;;;;;;;;;;13.84;100.00;100040.47;5051890;28;20031;-67
2021/05/12 08:38:03;;;;;;;;;;;;;;;13.84;100.00;100043.19;5053944;28;20011;-67
2021/05/12 08:40:30;;;;;;;;;;;;;;;14.00;100.00;100039.69;5052102;28;19928;-67
2021/05/12 08:42:56;;;;;;;;;;;;;;;13.93;100.00;100050.41;5060745;28;20013;-67
2021/05/12 08:45:23;;;;;;;;;;;;;;;13.82;100.00;100047.97;5063467;28;20411;-67
2021/05/12 08:47:54;;;;;;;;;;;;;;;13.86;100.00;100047.47;5067410;28;20319;-67
2021/05/12 08:50:20;;;;;;;;;;;;;;;14.02;100.00;100054.03;5051857;28;19925;-66
2021/05/12 08:52:46;;;;;;;;;;;;;;;14.14;100.00;100040.97;5068211;28;20019;-67
2021/05/12 08:55:12;;;;;;;;;;;;;;;14.36;100.00;100045.81;5091594;28;19968;-67
2021/05/12 08:57:39;;;;;;;;;;;;;;;14.39;100.00;100041.88;5076673;28;19952;-67
2021/05/12 09:00:06;;;;;;;;;;;;;;;14.42;100.00;100046.16;5071429;28;19924;-67
2021/05/12 09:02:31;;;;;;;;;;;;;;;14.38;100.00;100051.09;5060311;28;20031;-66
2021/05/12 09:04:57;;;;;;;;;;;;;;;14.36;100.00;100051.28;5052534;28;20403;-67
2021/05/12 09:07:23;;;;;;;;;;;;;;;14.33;100.00;100045.28;5062460;28;19933;-67
2021/05/12 09:09:50;;;;;;;;;;;;;;;14.59;100.00;100039.72;5063688;28;20450;-67
2021/05/12 09:12:15;;;;;;;;;;;;;;;14.68;100.00;100037.88;5070421;28;19975;-67
2021/05/12 09:14:42;;;;;;;;;;;;;;;14.98;100.00;100035.50;5046732;28;19932;-67
2021/05/12 09:17:08;;;;;;;;;;;;;;;15.10;100.00;100039.63;5058460;28;20415;-67
2021/05/12 09:19:34;;;;;;;;;;;;;;;15.32;100.00;100035.34;5051348;28;19925;-67
2021/05/12 09:22:01;;;;;;;;;;;;;;;15.36;100.00;100036.69;5062194;28;19925;-67
2021/05/12 09:24:28;;;;;;;;;;;;;;;15.63;100.00;100033.75;5051827;28;19990;-67
2021/05/12 09:26:55;;;;;;;;;;;;;;;15.97;100.00;100029.94;5059495;28;19962;-67
2021/05/12 09:29:22;;;;;;;;;;;;;;;15.99;100.00;100027.88;5075691;28;19924;-67
2021/05/12 09:31:49;;;;;;;;;;;;;;;16.02;100.00;100027.50;5091510;28;20433;-67
2021/05/12 09:34:15;;;;;;;;;;;;;;;15.87;100.00;100020.06;5073120;28;19924;-67
2021/05/12 09:36:41;;;;;;;;;;;;;;;15.72;100.00;100027.25;5077057;28;20019;-67
2021/05/12 09:39:09;;;;;;;;;;;;;;;15.52;100.00;100021.31;5070742;28;19932;-67
2021/05/12 09:41:36;;;;;;;;;;;;;;;15.60;100.00;100023.16;5069332;28;20021;-67
2021/05/12 09:44:04;;;;;;;;;;;;;;;15.49;100.00;100021.66;5070731;28;19932;-67
2021/05/12 09:46:33;;;;;;;;;;;;;;;15.17;100.00;100023.41;5059686;28;19928;-67
2021/05/12 09:49:12;;;;;;;;;;;;;;;15.24;100.00;100024.41;5050792;28;20427;-66
2021/05/12 09:51:39;;;;;;;;;;;;;;;15.13;100.00;100024.78;5051993;28;19933;-67
2021/05/12 09:54:06;;;;;;;;;;;;;;;15.02;100.00;100026.81;5069507;28;19924;-68
2021/05/12 09:56:36;;;;;;;;;;;;;;;15.30;100.00;100028.31;5059792;28;19925;-67
2021/05/12 09:59:04;;;;;;;;;;;;;;;15.42;100.00;100026.97;5065585;28;19928;-67
2021/05/12 10:01:43;;;;;;;;;;;;;;;15.26;100.00;100029.69;5055808;28;19931;-66
2021/05/12 10:04:20;;;;;;;;;;;;;;;15.22;100.00;100021.84;5050843;28;19971;-67
2021/05/12 10:06:46;;;;;;;;;;;;;;;15.29;100.00;100015.72;5069349;28;19924;-67
2021/05/12 10:09:18;;;;;;;;;;;;;;;15.60;100.00;100012.22;5070954;28;19928;-68
2021/05/12 10:11:58;;;;;;;;;;;;;;;15.77;100.00;100013.88;5071695;28;19924;-67
2021/05/12 10:14:24;;;;;;;;;;;;;;;15.61;100.00;100006.56;5091214;28;20012;-66
2021/05/12 10:16:50;;;;;;;;;;;;;;;15.26;100.00;100018.78;5071366;28;19924;-66
2021/05/12 10:19:16;;;;;;;;;;;;;;;15.08;100.00;100008.88;5070497;28;20395;-67
2021/05/12 10:21:43;;;;;;;;;;;;;;;14.97;100.00;100015.53;5041298;28;19951;-67
2021/05/12 10:24:09;;;;;;;;;;;;;;;15.06;100.00;100019.16;5062862;28;19935;-67
2021/05/12 10:26:36;;;;;;;;;;;;;;;15.14;100.00;100013.66;5073683;28;19925;-67
2021/05/12 10:29:02;;;;;;;;;;;;;;;15.21;100.00;100020.13;5068795;28;19924;-67
2021/05/12 10:31:27;;;;;;;;;;;;;;;15.21;100.00;100027.50;5074042;28;19929;-66
2021/05/12 10:33:53;;;;;;;;;;;;;;;15.07;100.00;100034.50;5089898;28;20383;-66
2021/05/12 10:36:20;;;;;;;;;;;;;;;14.92;100.00;100023.41;5086436;28;19925;-66
2021/05/12 10:38:47;;;;;;;;;;;;;;;14.87;100.00;100025.78;5070298;28;19929;-68
2021/05/12 10:41:28;;;;;;;;;;;;;;;14.88;100.00;100028.38;5070708;28;19925;-66
2021/05/12 10:43:54;;;;;;;;;;;;;;;15.19;100.00;100029.53;5068803;28;19932;-66
2021/05/12 10:46:28;;;;;;;;;;;;;;;15.57;100.00;100030.69;5067325;28;19956;-66
2021/05/12 10:48:55;;;;;;;;;;;;;;;15.82;100.00;100032.53;5074150;28;19933;-66
2021/05/12 10:51:31;;;;;;;;;;;;;;;15.97;100.00;100033.53;5063799;28;19925;-66
2021/05/12 10:53:58;;;;;;;;;;;;;;;16.26;100.00;100022.94;5076244;28;19924;-66
2021/05/12 10:56:33;;;;;;;;;;;;;;;16.13;100.00;100024.38;5054030;28;19925;-66
2021/05/12 10:59:00;;;;;;;;;;;;;;;15.84;100.00;100031.31;5054341;28;19924;-66
2021/05/12 11:01:27;;;;;;;;;;;;;;;15.84;100.00;100025.00;5055268;28;19959;-67
2021/05/12 11:04:14;;;;;;;;;;;;;;;16.05;100.00;100014.31;5035832;28;20392;-66
2021/05/12 11:07:00;;;;;;;;;;;;;;;15.99;100.00;100008.69;5035996;28;19925;-67
2021/05/12 11:09:50;;;;;;;;;;;;;;;15.82;100.00;100014.25;5053303;28;19944;-68
2021/05/12 11:12:20;;;;;;;;;;;;;;;15.82;100.00;100019.72;5042634;28;19929;-67
2021/05/12 11:14:56;;;;;;;;;;;;;;;15.89;100.00;100023.44;5075218;28;19924;-67
2021/05/12 11:17:22;;;;;;;;;;;;;;;15.68;100.00;100025.88;5093945;28;19931;-67
2021/05/12 11:19:51;;;;;;;;;;;;;;;15.68;100.00;100031.34;5071036;28;19929;-68
2021/05/12 11:22:31;;;;;;;;;;;;;;;15.77;100.00;100034.91;5035486;28;19983;-67
2021/05/12 11:25:01;;;;;;;;;;;;;;;15.92;100.00;100040.56;5065452;28;20388;-67
2021/05/12 11:27:35;;;;;;;;;;;;;;;15.83;100.00;100036.97;5053437;28;19931;-66
2021/05/12 11:32:44;;;;;;;;;;;;;;;15.77;100.00;100051.31;5071504;28;20007;-66
2021/05/12 11:35:12;;;;;;;;;;;;;;;15.88;100.00;100051.84;5064989;28;20023;-67
2021/05/12 11:37:44;;;;;;;;;;;;;;;15.76;100.00;100066.91;5093358;28;19935;-67
2021/05/12 11:40:10;;;;;;;;;;;;;;;15.77;100.00;100060.41;5072605;28;20649;-67
2021/05/12 11:42:36;;;;;;;;;;;;;;;15.63;100.00;100059.22;5081370;28;19950;-67
2021/05/12 11:45:04;;;;;;;;;;;;;;;15.57;100.00;100066.25;5054071;28;19932;-68
2021/05/12 11:47:30;;;;;;;;;;;;;;;15.44;100.00;100052.25;5064286;28;19928;-67
2021/05/12 11:49:56;;;;;;;;;;;;;;;15.51;100.00;100056.03;5054572;28;20458;-67
2021/05/12 11:52:26;;;;;;;;;;;;;;;15.53;100.00;100061.31;5052756;28;19925;-67
2021/05/12 11:54:52;;;;;;;;;;;;;;;15.28;100.00;100068.69;5054049;28;20281;-67
2021/05/12 11:57:18;;;;;;;;;;;;;;;15.35;100.00;100069.69;5073055;28;19975;-67
2021/05/12 11:59:44;;;;;;;;;;;;;;;15.06;100.00;100069.19;5061112;28;20324;-67
2021/05/12 12:02:12;;;;;;;;;;;;;;;14.83;100.00;100065.38;5036967;28;19929;-67
2021/05/12 12:04:39;;;;;;;;;;;;;;;14.82;100.00;100069.16;5078845;28;19934;-67
2021/05/12 12:07:06;;;;;;;;;;;;;;;14.87;100.00;100072.22;5090378;28;19924;-68
2021/05/12 12:09:32;;;;;;;;;;;;;;;14.95;100.00;100068.66;5072285;28;19925;-67
2021/05/12 12:11:59;;;;;;;;;;;;;;;15.07;100.00;100067.28;5081052;28;19928;-67
2021/05/12 12:14:28;;;;;;;;;;;;;;;15.04;100.00;100070.38;5072873;28;19924;-67
2021/05/12 12:16:54;;;;;;;;;;;;;;;14.91;100.00;100068.13;5072504;28;19928;-67
2021/05/12 12:19:20;;;;;;;;;;;;;;;14.76;100.00;100058.91;5050983;28;19982;-67
2021/05/12 12:21:47;;;;;;;;;;;;;;;15.05;100.00;100064.72;5053758;28;19932;-67
2021/05/12 12:24:15;;;;;;;;;;;;;;;15.21;100.00;100063.88;5054489;28;20307;-67
2021/05/12 12:26:43;;;;;;;;;;;;;;;15.50;100.00;100067.97;5049212;28;20212;-66
2021/05/12 12:29:09;;;;;;;;;;;;;;;15.55;100.00;100071.06;5058269;28;19933;-66
2021/05/12 12:31:36;;;;;;;;;;;;;;;15.72;100.00;100077.31;5056498;28;19971;-66
2021/05/12 12:34:11;;;;;;;;;;;;;;;15.74;100.00;100068.97;5091118;28;19931;-68
2021/05/12 12:36:47;;;;;;;;;;;;;;;15.72;100.00;100071.84;5088307;28;19947;-68
2021/05/12 12:39:13;;;;;;;;;;;;;;;15.67;100.00;100067.94;5072027;28;19929;-67
2021/05/12 12:41:39;;;;;;;;;;;;;;;15.52;100.00;100074.13;5055634;28;20445;-68